createdAt,value
2022-08-07T00:00:40.041Z,1022.91
2022-08-07T00:01:43.559Z,1022.87
2022-08-07T00:02:41.418Z,1022.88
2022-08-07T00:03:39.185Z,1022.87
2022-08-07T00:04:39.172Z,1022.81
2022-08-07T00:05:38.145Z,1022.80
2022-08-07T00:06:41.001Z,1022.84
2022-08-07T00:07:41.202Z,1022.82
2022-08-07T00:08:38.110Z,1022.83
2022-08-07T00:09:39.076Z,1022.81
2022-08-07T00:10:47.607Z,1022.86
2022-08-07T00:11:48.049Z,1022.83
2022-08-07T00:12:57.789Z,1022.81
2022-08-07T00:13:40.526Z,1022.75
2022-08-07T00:14:39.022Z,1022.78
2022-08-07T00:15:46.627Z,1022.81
2022-08-07T00:16:39.000Z,1022.76
2022-08-07T00:17:37.968Z,1022.76
2022-08-07T00:18:37.958Z,1022.78
2022-08-07T00:20:00.581Z,1022.78
2022-08-07T00:20:38.943Z,1022.73
2022-08-07T00:21:55.886Z,1022.70
2022-08-07T00:22:38.912Z,1022.71
2022-08-07T00:23:39.511Z,1022.74
2022-08-07T00:24:37.900Z,1022.71
2022-08-07T00:25:41.578Z,1022.69
2022-08-07T00:26:59.403Z,1022.74
2022-08-07T00:27:52.644Z,1022.73
2022-08-07T00:28:45.988Z,1022.74
2022-08-07T00:29:38.822Z,1022.72
2022-08-07T00:30:37.791Z,1022.72
2022-08-07T00:31:42.078Z,1022.73
2022-08-07T00:32:37.762Z,1022.72
2022-08-07T00:33:37.759Z,1022.70
2022-08-07T00:34:37.747Z,1022.73
2022-08-07T00:35:37.716Z,1022.71
2022-08-07T00:36:38.621Z,1022.75
2022-08-07T00:37:47.772Z,1022.76
2022-08-07T00:38:38.975Z,1022.76
2022-08-07T00:39:37.718Z,1022.75
2022-08-07T00:40:40.343Z,1022.73
2022-08-07T00:41:53.039Z,1022.76
2022-08-07T00:42:38.640Z,1022.71
2022-08-07T00:44:01.080Z,1022.70
2022-08-07T00:44:41.403Z,1022.70
2022-08-07T00:45:37.590Z,1022.74
2022-08-07T00:46:37.578Z,1022.74
2022-08-07T00:48:09.666Z,1022.73
2022-08-07T00:48:42.002Z,1022.75
2022-08-07T00:50:19.216Z,1022.74
2022-08-07T00:50:50.538Z,1022.75
2022-08-07T00:51:58.210Z,1022.74
2022-08-07T00:52:38.497Z,1022.72
2022-08-07T00:53:38.845Z,1022.72
2022-08-07T00:54:40.607Z,1022.71
2022-08-07T00:56:02.139Z,1022.71
2022-08-07T00:56:38.463Z,1022.73
2022-08-07T00:57:37.420Z,1022.70
2022-08-07T00:58:37.411Z,1022.76
2022-08-07T00:59:37.415Z,1022.73
2022-08-07T01:00:37.390Z,1022.77
2022-08-07T01:01:44.239Z,1022.74
2022-08-07T01:02:38.377Z,1022.69
2022-08-07T01:03:55.333Z,1022.72
2022-08-07T01:04:43.101Z,1022.73
2022-08-07T01:05:38.313Z,1022.73
2022-08-07T01:06:37.311Z,1022.72
2022-08-07T01:07:37.298Z,1022.74
2022-08-07T01:08:37.295Z,1022.65
2022-08-07T01:10:04.609Z,1022.66
2022-08-07T01:10:38.252Z,1022.67
2022-08-07T01:12:27.909Z,1022.67
2022-08-07T01:12:38.657Z,1022.68
2022-08-07T01:13:37.219Z,1022.68
2022-08-07T01:14:37.333Z,1022.73
2022-08-07T01:16:05.402Z,1022.69
2022-08-07T01:16:38.180Z,1022.67
2022-08-07T01:17:37.154Z,1022.66
2022-08-07T01:18:37.144Z,1022.69
2022-08-07T01:19:38.521Z,1022.66
2022-08-07T01:20:43.218Z,1022.66
2022-08-07T01:21:38.110Z,1022.69
2022-08-07T01:22:37.111Z,1022.72
2022-08-07T01:23:39.354Z,1022.70
2022-08-07T01:24:37.059Z,1022.67
2022-08-07T01:25:54.398Z,1022.66
2022-08-07T01:26:38.052Z,1022.64
2022-08-07T01:27:37.452Z,1022.64
2022-08-07T01:28:38.021Z,1022.69
2022-08-07T01:29:36.990Z,1022.62
2022-08-07T01:30:36.977Z,1022.64
2022-08-07T01:31:41.634Z,1022.64
2022-08-07T01:32:37.951Z,1022.65
2022-08-07T01:33:56.282Z,1022.64
2022-08-07T01:34:37.945Z,1022.64
2022-08-07T01:35:53.473Z,1022.66
2022-08-07T01:36:40.676Z,1022.65
2022-08-07T01:37:36.881Z,1022.67
2022-08-07T01:38:36.868Z,1022.72
2022-08-07T01:39:40.768Z,1022.63
2022-08-07T01:40:37.844Z,1022.63
2022-08-07T01:41:36.837Z,1022.65
2022-08-07T01:42:57.669Z,1022.63
2022-08-07T01:43:38.272Z,1022.58
2022-08-07T01:44:36.797Z,1022.61
2022-08-07T01:45:39.940Z,1022.56
2022-08-07T01:46:36.754Z,1022.57
2022-08-07T01:48:18.169Z,1022.56
2022-08-07T01:48:41.081Z,1022.57
2022-08-07T01:49:36.726Z,1022.60
2022-08-07T01:50:36.718Z,1022.58
2022-08-07T01:52:04.004Z,1022.60
2022-08-07T01:52:37.807Z,1022.60
2022-08-07T01:54:08.987Z,1022.60
2022-08-07T01:54:37.798Z,1022.57
2022-08-07T01:55:36.640Z,1022.53
2022-08-07T01:56:36.640Z,1022.55
2022-08-07T01:58:06.546Z,1022.58
2022-08-07T01:58:41.096Z,1022.57
2022-08-07T02:00:49.273Z,1022.52
2022-08-07T02:02:02.613Z,1022.51
2022-08-07T02:03:18.206Z,1022.50
2022-08-07T02:03:51.040Z,1022.48
2022-08-07T02:04:55.705Z,1022.49
2022-08-07T02:06:01.027Z,1022.46
2022-08-07T02:08:03.754Z,1022.44
2022-08-07T02:09:00.536Z,1022.40
2022-08-07T02:10:00.564Z,1022.44
2022-08-07T02:11:00.456Z,1022.39
2022-08-07T02:12:04.869Z,1022.45
2022-08-07T02:13:00.447Z,1022.41
2022-08-07T02:14:02.456Z,1022.40
2022-08-07T02:15:00.679Z,1022.38
2022-08-07T02:16:00.402Z,1022.42
2022-08-07T02:17:00.378Z,1022.42
2022-08-07T02:18:00.357Z,1022.37
2022-08-07T02:19:00.362Z,1022.43
2022-08-07T02:20:07.382Z,1022.42
2022-08-07T02:21:01.341Z,1022.37
2022-08-07T02:22:01.320Z,1022.39
2022-08-07T02:23:00.289Z,1022.40
2022-08-07T02:24:00.293Z,1022.43
2022-08-07T02:25:00.268Z,1022.41
2022-08-07T02:26:31.791Z,1022.42
2022-08-07T02:27:02.437Z,1022.39
2022-08-07T02:28:00.235Z,1022.35
2022-08-07T02:29:00.217Z,1022.39
2022-08-07T02:30:00.205Z,1022.37
2022-08-07T02:31:00.204Z,1022.35
2022-08-07T02:32:01.164Z,1022.32
2022-08-07T02:33:09.172Z,1022.36
2022-08-07T02:34:03.038Z,1022.35
2022-08-07T02:35:00.994Z,1022.32
2022-08-07T02:36:26.863Z,1022.30
2022-08-07T02:37:01.101Z,1022.33
2022-08-07T02:38:00.094Z,1022.34
2022-08-07T02:39:00.197Z,1022.33
2022-08-07T02:40:11.698Z,1022.33
2022-08-07T02:41:01.148Z,1022.28
2022-08-07T02:42:00.038Z,1022.29
2022-08-07T02:43:00.023Z,1022.32
2022-08-07T02:43:59.995Z,1022.30
2022-08-07T02:45:00.011Z,1022.30
2022-08-07T02:46:02.485Z,1022.31
2022-08-07T02:46:59.967Z,1022.33
2022-08-07T02:48:01.608Z,1022.32
2022-08-07T02:48:59.935Z,1022.33
2022-08-07T02:50:00.526Z,1022.29
2022-08-07T02:50:59.921Z,1022.33
2022-08-07T02:51:59.897Z,1022.36
2022-08-07T02:53:03.442Z,1022.34
2022-08-07T02:54:00.883Z,1022.31
2022-08-07T02:54:59.857Z,1022.35
2022-08-07T02:56:04.340Z,1022.30
2022-08-07T02:57:00.827Z,1022.27
2022-08-07T02:57:59.949Z,1022.30
2022-08-07T02:58:59.820Z,1022.29
2022-08-07T03:00:01.148Z,1022.22
2022-08-07T03:01:00.827Z,1022.20
2022-08-07T03:02:01.157Z,1022.23
2022-08-07T03:02:59.749Z,1022.17
2022-08-07T03:04:03.237Z,1022.15
2022-08-07T03:05:00.720Z,1022.23
2022-08-07T03:05:59.701Z,1022.21
2022-08-07T03:06:59.713Z,1022.20
2022-08-07T03:08:06.800Z,1022.21
2022-08-07T03:09:00.689Z,1022.22
2022-08-07T03:09:59.664Z,1022.26
2022-08-07T03:10:59.633Z,1022.23
2022-08-07T03:12:02.574Z,1022.25
2022-08-07T03:12:59.610Z,1022.17
2022-08-07T03:14:01.870Z,1022.28
2022-08-07T03:15:02.388Z,1022.28
2022-08-07T03:16:00.578Z,1022.25
2022-08-07T03:16:59.553Z,1022.23
2022-08-07T03:17:59.543Z,1022.23
2022-08-07T03:18:59.549Z,1022.24
2022-08-07T03:19:59.514Z,1022.25
2022-08-07T03:20:59.518Z,1022.27
2022-08-07T03:21:59.499Z,1022.24
2022-08-07T03:22:59.476Z,1022.30
2022-08-07T03:24:20.967Z,1022.32
2022-08-07T03:25:00.501Z,1022.31
2022-08-07T03:25:59.867Z,1022.30
2022-08-07T03:26:59.678Z,1022.35
2022-08-07T03:28:09.681Z,1022.31
2022-08-07T03:29:00.409Z,1022.31
2022-08-07T03:29:59.390Z,1022.33
2022-08-07T03:30:59.366Z,1022.37
2022-08-07T03:31:59.347Z,1022.31
2022-08-07T03:33:01.013Z,1022.36
2022-08-07T03:33:59.442Z,1022.38
2022-08-07T03:35:00.916Z,1022.38
2022-08-07T03:36:00.322Z,1022.35
2022-08-07T03:36:59.280Z,1022.37
2022-08-07T03:37:59.270Z,1022.37
2022-08-07T03:38:59.305Z,1022.35
2022-08-07T03:40:15.986Z,1022.37
2022-08-07T03:41:00.296Z,1022.33
2022-08-07T03:41:59.224Z,1022.32
2022-08-07T03:42:59.200Z,1022.30
2022-08-07T03:43:59.203Z,1022.34
2022-08-07T03:44:59.178Z,1022.32
2022-08-07T03:45:59.163Z,1022.35
2022-08-07T03:47:13.286Z,1022.33
2022-08-07T03:48:00.162Z,1022.34
2022-08-07T03:49:02.929Z,1022.36
2022-08-07T03:49:59.104Z,1022.34
2022-08-07T03:50:59.146Z,1022.36
2022-08-07T03:52:01.100Z,1022.32
2022-08-07T03:52:59.087Z,1022.25
2022-08-07T03:54:33.448Z,1022.31
2022-08-07T03:55:06.844Z,1022.29
2022-08-07T03:56:03.937Z,1022.33
2022-08-07T03:57:03.728Z,1022.34
2022-08-07T03:59:05.012Z,1022.38
2022-08-07T03:59:09.417Z,1022.39
2022-08-07T04:00:02.894Z,1022.41
2022-08-07T04:01:00.260Z,1022.41
2022-08-07T04:01:59.018Z,1022.38
2022-08-07T04:02:58.942Z,1022.44
2022-08-07T04:03:58.938Z,1022.40
2022-08-07T04:04:59.017Z,1022.38
2022-08-07T04:05:59.902Z,1022.38
2022-08-07T04:07:00.172Z,1022.36
2022-08-07T04:07:58.867Z,1022.36
2022-08-07T04:08:58.879Z,1022.40
2022-08-07T04:09:58.851Z,1022.38
2022-08-07T04:10:58.828Z,1022.37
2022-08-07T04:12:24.184Z,1022.38
2022-08-07T04:12:59.809Z,1022.38
2022-08-07T04:14:10.607Z,1022.38
2022-08-07T04:15:00.220Z,1022.32
2022-08-07T04:15:58.760Z,1022.37
2022-08-07T04:16:59.057Z,1022.36
2022-08-07T04:18:31.003Z,1022.37
2022-08-07T04:19:01.650Z,1022.37
2022-08-07T04:19:58.710Z,1022.33
2022-08-07T04:20:58.714Z,1022.36
2022-08-07T04:21:59.579Z,1022.37
2022-08-07T04:23:01.463Z,1022.39
2022-08-07T04:24:06.059Z,1022.37
2022-08-07T04:25:01.352Z,1022.39
2022-08-07T04:25:58.632Z,1022.35
2022-08-07T04:26:59.636Z,1022.34
2022-08-07T04:27:59.447Z,1022.35
2022-08-07T04:28:58.694Z,1022.35
2022-08-07T04:30:02.797Z,1022.33
2022-08-07T04:30:59.590Z,1022.36
2022-08-07T04:32:02.984Z,1022.33
2022-08-07T04:32:59.656Z,1022.38
2022-08-07T04:33:58.524Z,1022.38
2022-08-07T04:34:58.528Z,1022.42
2022-08-07T04:35:58.510Z,1022.46
2022-08-07T04:36:58.487Z,1022.44
2022-08-07T04:38:03.668Z,1022.44
2022-08-07T04:38:59.516Z,1022.45
2022-08-07T04:39:58.483Z,1022.47
2022-08-07T04:40:58.449Z,1022.44
2022-08-07T04:41:58.430Z,1022.44
2022-08-07T04:43:03.224Z,1022.51
2022-08-07T04:44:12.056Z,1022.48
2022-08-07T04:45:03.250Z,1022.50
2022-08-07T04:46:02.088Z,1022.47
2022-08-07T04:47:03.974Z,1022.46
2022-08-07T04:48:05.981Z,1022.51
2022-08-07T04:48:59.452Z,1022.46
2022-08-07T04:50:03.865Z,1022.49
2022-08-07T04:50:59.300Z,1022.50
2022-08-07T04:51:58.279Z,1022.51
2022-08-07T04:52:58.865Z,1022.47
2022-08-07T04:54:05.608Z,1022.47
2022-08-07T04:54:59.380Z,1022.51
2022-08-07T04:58:09.599Z,1022.51
2022-08-07T04:58:11.258Z,1022.51
2022-08-07T04:58:15.845Z,1022.50
2022-08-07T05:00:12.833Z,1022.49
2022-08-07T05:00:59.267Z,1022.48
2022-08-07T05:01:58.180Z,1022.46
2022-08-07T05:02:58.139Z,1022.49
2022-08-07T05:04:07.112Z,1022.47
2022-08-07T05:04:59.113Z,1022.48
2022-08-07T05:05:58.093Z,1022.47
2022-08-07T05:06:58.136Z,1022.48
2022-08-07T05:07:58.064Z,1022.46
2022-08-07T05:09:00.778Z,1022.46
2022-08-07T05:09:58.056Z,1022.49
2022-08-07T05:10:58.532Z,1022.51
2022-08-07T05:12:02.322Z,1022.47
2022-08-07T05:13:09.879Z,1022.52
2022-08-07T05:14:52.439Z,1022.44
2022-08-07T05:15:03.532Z,1022.48
2022-08-07T05:15:58.957Z,1022.44
2022-08-07T05:16:57.968Z,1022.40
2022-08-07T05:17:58.226Z,1022.41
2022-08-07T05:18:57.924Z,1022.44
2022-08-07T05:19:57.918Z,1022.47
2022-08-07T05:20:57.934Z,1022.49
2022-08-07T05:22:00.691Z,1022.50
2022-08-07T05:22:57.952Z,1022.49
2022-08-07T05:23:57.871Z,1022.46
2022-08-07T05:24:59.630Z,1022.49
2022-08-07T05:26:13.787Z,1022.45
2022-08-07T05:26:58.831Z,1022.44
2022-08-07T05:28:02.872Z,1022.50
2022-08-07T05:28:58.802Z,1022.48
2022-08-07T05:29:57.782Z,1022.53
2022-08-07T05:30:57.793Z,1022.52
2022-08-07T05:31:57.753Z,1022.48
2022-08-07T05:32:57.730Z,1022.50
2022-08-07T05:34:01.020Z,1022.51
2022-08-07T05:36:12.188Z,1022.52
2022-08-07T05:37:09.690Z,1022.57
2022-08-07T05:38:09.950Z,1022.54
2022-08-07T05:40:14.033Z,1022.59
2022-08-07T05:40:17.819Z,1022.54
2022-08-07T05:41:14.219Z,1022.52
2022-08-07T05:42:12.416Z,1022.57
2022-08-07T05:43:10.519Z,1022.54
2022-08-07T05:44:12.752Z,1022.56
2022-08-07T05:45:25.751Z,1022.58
2022-08-07T05:46:10.562Z,1022.60
2022-08-07T05:47:18.041Z,1022.63
2022-08-07T05:48:10.842Z,1022.65
2022-08-07T05:49:12.562Z,1022.61
2022-08-07T05:50:09.554Z,1022.62
2022-08-07T05:51:09.504Z,1022.68
2022-08-07T05:52:11.721Z,1022.59
2022-08-07T05:54:08.454Z,1022.62
2022-08-07T05:54:29.301Z,1022.61
2022-08-07T05:55:11.235Z,1022.59
2022-08-07T05:56:09.447Z,1022.63
2022-08-07T05:57:09.416Z,1022.65
2022-08-07T05:58:09.411Z,1022.61
2022-08-07T05:59:09.409Z,1022.61
2022-08-07T06:00:09.375Z,1022.63
2022-08-07T06:01:10.817Z,1022.62
2022-08-07T06:02:09.431Z,1022.61
2022-08-07T06:03:09.347Z,1022.61
2022-08-07T06:04:09.338Z,1022.66
2022-08-07T06:05:10.803Z,1022.67
2022-08-07T06:06:09.552Z,1022.67
2022-08-07T06:07:09.301Z,1022.68
2022-08-07T06:08:30.258Z,1022.67
2022-08-07T06:09:10.258Z,1022.74
2022-08-07T06:10:15.135Z,1022.73
2022-08-07T06:11:10.265Z,1022.73
2022-08-07T06:12:09.288Z,1022.77
2022-08-07T06:13:13.353Z,1022.70
2022-08-07T06:14:11.522Z,1022.73
2022-08-07T06:15:09.179Z,1022.74
2022-08-07T06:16:10.354Z,1022.77
2022-08-07T06:17:09.179Z,1022.78
2022-08-07T06:18:09.201Z,1022.81
2022-08-07T06:19:09.154Z,1022.76
2022-08-07T06:20:12.428Z,1022.76
2022-08-07T06:22:15.241Z,1022.73
2022-08-07T06:22:15.415Z,1022.75
2022-08-07T06:23:46.706Z,1022.73
2022-08-07T06:24:45.540Z,1022.68
2022-08-07T06:25:10.410Z,1022.70
2022-08-07T06:26:09.024Z,1022.68
2022-08-07T06:27:09.027Z,1022.69
2022-08-07T06:28:09.004Z,1022.61
2022-08-07T06:29:10.028Z,1022.64
2022-08-07T06:30:08.979Z,1022.60
2022-08-07T06:31:09.956Z,1022.58
2022-08-07T06:32:08.960Z,1022.59
2022-08-07T06:33:09.993Z,1022.61
2022-08-07T06:34:09.917Z,1022.57
2022-08-07T06:35:17.646Z,1022.58
2022-08-07T06:36:13.121Z,1022.51
2022-08-07T06:37:08.890Z,1022.48
2022-08-07T06:38:10.130Z,1022.54
2022-08-07T06:40:13.135Z,1022.54
2022-08-07T06:40:15.952Z,1022.56
2022-08-07T06:41:12.995Z,1022.50
2022-08-07T06:42:09.123Z,1022.52
2022-08-07T06:43:21.066Z,1022.54
2022-08-07T06:44:10.830Z,1022.52
2022-08-07T06:45:11.234Z,1022.50
2022-08-07T06:46:11.642Z,1022.50
2022-08-07T06:47:12.387Z,1022.55
2022-08-07T06:48:11.352Z,1022.50
2022-08-07T06:49:08.733Z,1022.47
2022-08-07T06:50:08.717Z,1022.50
2022-08-07T06:51:08.753Z,1022.52
2022-08-07T06:52:10.217Z,1022.50
2022-08-07T06:54:11.527Z,1022.51
2022-08-07T06:55:29.645Z,1022.50
2022-08-07T06:55:32.195Z,1022.53
2022-08-07T06:56:15.004Z,1022.49
2022-08-07T06:57:09.633Z,1022.51
2022-08-07T06:58:10.235Z,1022.48
2022-08-07T07:00:11.393Z,1022.48
2022-08-07T07:00:14.210Z,1022.45
2022-08-07T07:01:09.592Z,1022.48
2022-08-07T07:02:08.636Z,1022.44
2022-08-07T07:03:13.972Z,1022.44
2022-08-07T07:04:28.329Z,1022.45
2022-08-07T07:05:09.499Z,1022.45
2022-08-07T07:06:11.263Z,1022.44
2022-08-07T07:07:18.899Z,1022.38
2022-08-07T07:08:10.113Z,1022.41
2022-08-07T07:09:08.471Z,1022.38
2022-08-07T07:10:08.443Z,1022.41
2022-08-07T07:11:14.467Z,1022.36
2022-08-07T07:12:15.643Z,1022.40
2022-08-07T07:13:10.009Z,1022.35
2022-08-07T07:14:09.811Z,1022.35
2022-08-07T07:15:09.040Z,1022.34
2022-08-07T07:16:09.355Z,1022.35
2022-08-07T07:17:08.331Z,1022.36
2022-08-07T07:18:09.310Z,1022.36
2022-08-07T07:19:16.198Z,1022.41
2022-08-07T07:20:09.282Z,1022.33
2022-08-07T07:21:13.477Z,1022.36
2022-08-07T07:22:33.862Z,1022.34
2022-08-07T07:24:08.992Z,1022.32
2022-08-07T07:24:12.576Z,1022.29
2022-08-07T07:26:30.877Z,1022.31
2022-08-07T07:26:34.582Z,1022.31
2022-08-07T07:27:09.207Z,1022.26
2022-08-07T07:28:42.019Z,1022.20
2022-08-07T07:29:56.147Z,1022.21
2022-08-07T07:30:11.948Z,1022.20
2022-08-07T07:31:08.160Z,1022.17
2022-08-07T07:32:08.134Z,1022.20
2022-08-07T07:33:08.129Z,1022.18
2022-08-07T07:34:08.120Z,1022.18
2022-08-07T07:35:08.088Z,1022.21
2022-08-07T07:36:13.413Z,1022.14
2022-08-07T07:37:21.820Z,1022.17
2022-08-07T07:38:09.048Z,1022.16
2022-08-07T07:39:08.111Z,1022.15
2022-08-07T07:40:14.935Z,1022.18
2022-08-07T07:41:09.244Z,1022.14
2022-08-07T07:42:13.320Z,1022.16
2022-08-07T07:43:15.367Z,1022.15
2022-08-07T07:44:17.223Z,1022.17
2022-08-07T07:45:08.983Z,1022.15
2022-08-07T07:46:36.533Z,1022.16
2022-08-07T07:47:15.910Z,1022.24
2022-08-07T07:48:08.925Z,1022.19
2022-08-07T07:49:09.127Z,1022.17
2022-08-07T07:50:34.881Z,1022.19
2022-08-07T07:51:08.883Z,1022.18
2022-08-07T07:52:07.854Z,1022.20
2022-08-07T07:53:20.689Z,1022.19
2022-08-07T07:54:08.847Z,1022.19
2022-08-07T07:55:07.814Z,1022.11
2022-08-07T07:56:07.818Z,1022.16
2022-08-07T07:57:07.785Z,1022.12
2022-08-07T07:58:07.776Z,1022.13
2022-08-07T07:59:07.775Z,1022.14
2022-08-07T08:00:09.199Z,1022.05
2022-08-07T08:02:01.811Z,1022.11
2022-08-07T08:02:10.583Z,1022.11
2022-08-07T08:03:08.101Z,1022.09
2022-08-07T08:04:10.280Z,1022.05
2022-08-07T08:05:14.179Z,1022.06
2022-08-07T08:06:13.060Z,1022.10
2022-08-07T08:07:07.813Z,1022.03
2022-08-07T08:08:07.662Z,1022.07
2022-08-07T08:09:09.747Z,1021.96
2022-08-07T08:10:07.619Z,1022.02
2022-08-07T08:11:08.531Z,1022.00
2022-08-07T08:12:07.591Z,1022.01
2022-08-07T08:13:10.383Z,1021.99
2022-08-07T08:14:08.577Z,1022.01
2022-08-07T08:15:07.553Z,1021.97
2022-08-07T08:16:07.535Z,1021.95
2022-08-07T08:17:56.230Z,1021.93
2022-08-07T08:18:17.579Z,1021.89
2022-08-07T08:19:17.332Z,1021.92
2022-08-07T08:20:19.142Z,1021.92
2022-08-07T08:21:08.461Z,1021.90
2022-08-07T08:22:07.831Z,1021.96
2022-08-07T08:23:08.505Z,1021.93
2022-08-07T08:24:07.426Z,1021.94
2022-08-07T08:25:24.782Z,1021.86
2022-08-07T08:26:08.421Z,1021.88
2022-08-07T08:27:09.575Z,1021.85
2022-08-07T08:28:07.382Z,1021.90
2022-08-07T08:29:08.256Z,1021.84
2022-08-07T08:30:07.341Z,1021.88
2022-08-07T08:31:07.344Z,1021.88
2022-08-07T08:32:18.288Z,1021.81
2022-08-07T08:33:15.105Z,1021.83
2022-08-07T08:34:08.371Z,1021.83
2022-08-07T08:35:07.609Z,1021.84
2022-08-07T08:36:07.287Z,1021.78
2022-08-07T08:37:09.795Z,1021.81
2022-08-07T08:38:08.529Z,1021.82
2022-08-07T08:39:07.257Z,1021.81
2022-08-07T08:40:07.250Z,1021.79
2022-08-07T08:41:08.248Z,1021.80
2022-08-07T08:42:07.198Z,1021.82
2022-08-07T08:43:07.200Z,1021.80
2022-08-07T08:44:07.277Z,1021.83
2022-08-07T08:45:13.047Z,1021.79
2022-08-07T08:46:08.125Z,1021.80
2022-08-07T08:47:09.779Z,1021.81
2022-08-07T08:48:07.112Z,1021.86
2022-08-07T08:49:07.117Z,1021.86
2022-08-07T08:50:07.183Z,1021.87
2022-08-07T08:51:14.651Z,1021.90
2022-08-07T08:52:14.420Z,1021.89
2022-08-07T08:53:08.042Z,1021.82
2022-08-07T08:54:07.041Z,1021.84
2022-08-07T08:55:07.619Z,1021.85
2022-08-07T08:56:07.147Z,1021.86
2022-08-07T08:57:06.977Z,1021.84
2022-08-07T08:58:06.971Z,1021.87
2022-08-07T08:59:13.522Z,1021.82
2022-08-07T09:00:07.940Z,1021.85
2022-08-07T09:01:15.249Z,1021.85
2022-08-07T09:02:09.056Z,1021.86
2022-08-07T09:03:07.660Z,1021.87
2022-08-07T09:04:06.886Z,1021.85
2022-08-07T09:05:06.885Z,1021.84
2022-08-07T09:06:06.874Z,1021.82
2022-08-07T09:07:06.904Z,1021.85
2022-08-07T09:08:06.848Z,1021.86
2022-08-07T09:09:09.680Z,1021.85
2022-08-07T09:10:07.825Z,1021.88
2022-08-07T09:11:06.840Z,1021.85
2022-08-07T09:12:20.265Z,1021.83
2022-08-07T09:13:07.850Z,1021.84
2022-08-07T09:14:06.769Z,1021.83
2022-08-07T09:16:22.033Z,1021.86
2022-08-07T09:16:25.528Z,1021.85
2022-08-07T09:17:07.711Z,1021.87
2022-08-07T09:18:08.753Z,1021.87
2022-08-07T09:19:50.786Z,1021.79
2022-08-07T09:20:24.969Z,1021.82
2022-08-07T09:21:13.632Z,1021.82
2022-08-07T09:22:22.656Z,1021.78
2022-08-07T09:24:29.266Z,1021.86
2022-08-07T09:24:33.139Z,1021.81
2022-08-07T09:25:14.516Z,1021.81
2022-08-07T09:26:07.614Z,1021.79
2022-08-07T09:27:11.954Z,1021.71
2022-08-07T09:30:02.337Z,1021.73
2022-08-07T09:30:04.214Z,1021.67
2022-08-07T09:30:08.992Z,1021.68
2022-08-07T09:31:06.542Z,1021.71
2022-08-07T09:32:18.610Z,1021.71
2022-08-07T09:33:24.470Z,1021.64
2022-08-07T09:34:07.499Z,1021.66
2022-08-07T09:36:02.891Z,1021.66
2022-08-07T09:36:07.793Z,1021.64
2022-08-07T09:37:06.446Z,1021.61
2022-08-07T09:38:06.446Z,1021.62
2022-08-07T09:39:11.329Z,1021.62
2022-08-07T09:40:07.599Z,1021.62
2022-08-07T09:41:06.393Z,1021.59
2022-08-07T09:42:07.864Z,1021.52
2022-08-07T09:43:08.397Z,1021.53
2022-08-07T09:44:10.324Z,1021.53
2022-08-07T09:47:25.741Z,1021.53
2022-08-07T09:47:51.624Z,1021.54
2022-08-07T09:47:52.543Z,1021.56
2022-08-07T09:48:12.012Z,1021.53
2022-08-07T09:50:01.197Z,1021.52
2022-08-07T09:50:19.218Z,1021.46
2022-08-07T09:51:14.751Z,1021.50
2022-08-07T09:52:15.508Z,1021.49
2022-08-07T09:53:07.249Z,1021.51
2022-08-07T09:54:06.269Z,1021.50
2022-08-07T09:55:06.205Z,1021.47
2022-08-07T09:56:07.381Z,1021.43
2022-08-07T09:57:06.285Z,1021.49
2022-08-07T09:58:07.165Z,1021.53
2022-08-07T09:59:07.847Z,1021.45
2022-08-07T10:00:07.135Z,1021.45
2022-08-07T10:01:08.322Z,1021.41
2022-08-07T10:02:07.218Z,1021.40
2022-08-07T10:03:08.166Z,1021.39
2022-08-07T10:04:14.874Z,1021.35
2022-08-07T10:05:12.464Z,1021.35
2022-08-07T10:06:12.243Z,1021.32
2022-08-07T10:07:24.177Z,1021.30
2022-08-07T10:08:07.074Z,1021.30
2022-08-07T10:09:06.030Z,1021.27
2022-08-07T10:10:06.023Z,1021.31
2022-08-07T10:11:59.494Z,1021.28
2022-08-07T10:12:13.294Z,1021.28
2022-08-07T10:13:15.944Z,1021.28
2022-08-07T10:14:07.117Z,1021.24
2022-08-07T10:15:06.263Z,1021.23
2022-08-07T10:16:05.928Z,1021.20
2022-08-07T10:17:14.264Z,1021.19
2022-08-07T10:18:06.903Z,1021.22
2022-08-07T10:19:11.423Z,1021.19
2022-08-07T10:20:06.895Z,1021.16
2022-08-07T10:21:08.672Z,1021.15
2022-08-07T10:22:14.676Z,1021.11
2022-08-07T10:23:07.539Z,1021.08
2022-08-07T10:24:08.556Z,1021.13
2022-08-07T10:25:05.803Z,1021.09
2022-08-07T10:26:05.938Z,1021.08
2022-08-07T10:27:06.743Z,1021.10
2022-08-07T10:28:05.772Z,1021.05
2022-08-07T10:29:05.731Z,1021.02
2022-08-07T10:30:06.419Z,1021.02
2022-08-07T10:31:06.079Z,1021.05
2022-08-07T10:32:06.730Z,1021.03
2022-08-07T10:33:06.697Z,1021.04
2022-08-07T10:34:15.257Z,1021.02
2022-08-07T10:35:09.104Z,1021.01
2022-08-07T10:36:11.318Z,1021.04
2022-08-07T10:37:12.447Z,1021.06
2022-08-07T10:38:21.120Z,1021.03
2022-08-07T10:39:06.628Z,1021.04
2022-08-07T10:40:09.092Z,1021.02
2022-08-07T10:41:05.590Z,1021.06
2022-08-07T10:42:09.897Z,1021.07
2022-08-07T10:43:06.546Z,1021.04
2022-08-07T10:44:07.343Z,1021.01
2022-08-07T10:45:05.774Z,1021.00
2022-08-07T10:46:05.516Z,1020.98
2022-08-07T10:47:05.781Z,1020.99
2022-08-07T10:48:07.349Z,1020.94
2022-08-07T10:49:05.482Z,1020.91
2022-08-07T10:50:05.582Z,1020.88
2022-08-07T10:51:05.438Z,1020.91
2022-08-07T10:52:13.165Z,1020.85
2022-08-07T10:53:08.009Z,1020.85
2022-08-07T10:54:05.409Z,1020.84
2022-08-07T10:55:21.001Z,1020.84
2022-08-07T10:56:06.424Z,1020.83
2022-08-07T10:57:05.363Z,1020.78
2022-08-07T10:58:05.352Z,1020.76
2022-08-07T10:59:05.346Z,1020.78
2022-08-07T11:00:05.322Z,1020.82
2022-08-07T11:01:05.460Z,1020.81
2022-08-07T11:02:27.351Z,1020.84
2022-08-07T11:03:11.286Z,1020.84
2022-08-07T11:04:16.474Z,1020.80
2022-08-07T11:05:10.559Z,1020.76
2022-08-07T11:06:05.244Z,1020.76
2022-08-07T11:07:05.277Z,1020.76
2022-08-07T11:08:06.467Z,1020.72
2022-08-07T11:09:11.554Z,1020.74
2022-08-07T11:10:09.158Z,1020.72
2022-08-07T11:11:05.176Z,1020.73
2022-08-07T11:12:05.396Z,1020.76
2022-08-07T11:13:05.202Z,1020.71
2022-08-07T11:14:57.045Z,1020.70
2022-08-07T11:15:14.706Z,1020.73
2022-08-07T11:16:07.124Z,1020.73
2022-08-07T11:17:07.353Z,1020.65
2022-08-07T11:18:05.089Z,1020.67
2022-08-07T11:19:05.193Z,1020.69
2022-08-07T11:20:05.060Z,1020.71
2022-08-07T11:21:05.056Z,1020.68
2022-08-07T11:22:05.046Z,1020.66
2022-08-07T11:23:05.019Z,1020.63
2022-08-07T11:24:05.026Z,1020.61
2022-08-07T11:25:06.569Z,1020.59
2022-08-07T11:26:06.407Z,1020.56
2022-08-07T11:27:04.979Z,1020.57
2022-08-07T11:28:05.198Z,1020.56
2022-08-07T11:29:05.646Z,1020.53
2022-08-07T11:30:17.650Z,1020.55
2022-08-07T11:31:08.760Z,1020.53
2022-08-07T11:32:05.906Z,1020.54
2022-08-07T11:33:07.906Z,1020.51
2022-08-07T11:34:05.891Z,1020.48
2022-08-07T11:35:04.857Z,1020.45
2022-08-07T11:36:09.927Z,1020.47
2022-08-07T11:37:06.726Z,1020.45
2022-08-07T11:38:12.644Z,1020.49
2022-08-07T11:39:07.051Z,1020.46
2022-08-07T11:40:04.864Z,1020.44
2022-08-07T11:41:04.795Z,1020.45
2022-08-07T11:42:04.816Z,1020.38
2022-08-07T11:43:04.751Z,1020.40
2022-08-07T11:44:12.809Z,1020.42
2022-08-07T11:45:05.733Z,1020.39
2022-08-07T11:46:04.712Z,1020.40
2022-08-07T11:47:04.716Z,1020.42
2022-08-07T11:48:13.778Z,1020.41
2022-08-07T11:49:50.090Z,1020.40
2022-08-07T11:50:31.930Z,1020.35
2022-08-07T11:51:09.052Z,1020.31
2022-08-07T11:52:04.640Z,1020.32
2022-08-07T11:53:04.975Z,1020.31
2022-08-07T11:54:09.778Z,1020.30
2022-08-07T11:55:09.034Z,1020.29
2022-08-07T11:56:13.969Z,1020.26
2022-08-07T11:57:05.581Z,1020.23
2022-08-07T11:58:05.570Z,1020.24
2022-08-07T12:00:07.610Z,1020.25
2022-08-07T12:00:11.139Z,1020.21
2022-08-07T12:01:06.834Z,1020.33
2022-08-07T12:02:04.578Z,1020.29
2022-08-07T12:03:05.490Z,1020.24
2022-08-07T12:04:04.485Z,1020.23
2022-08-07T12:05:04.571Z,1020.17
2022-08-07T12:06:37.483Z,1020.20
2022-08-07T12:07:09.083Z,1020.20
2022-08-07T12:08:05.426Z,1020.18
2022-08-07T12:09:04.427Z,1020.16
2022-08-07T12:10:05.679Z,1020.19